createdAt,value
2018-09-04T00:01:52.720Z,8.80
2018-09-04T00:04:46.821Z,10.07
2018-09-04T00:07:28.927Z,9.10
2018-09-04T00:10:10.840Z,9.97
2018-09-04T00:12:52.524Z,9.97
2018-09-04T00:15:34.395Z,11.00
2018-09-04T00:18:16.322Z,11.43
2018-09-04T00:21:08.062Z,11.83
2018-09-04T00:23:57.158Z,11.47
2018-09-04T00:26:38.774Z,10.33
2018-09-04T00:29:20.748Z,10.20
2018-09-04T00:32:02.528Z,9.93
2018-09-04T00:34:44.257Z,11.27
2018-09-04T00:37:26.372Z,12.20
2018-09-04T00:40:07.999Z,12.57
2018-09-04T00:42:49.245Z,13.30
2018-09-04T00:45:31.064Z,13.30
2018-09-04T00:48:12.772Z,12.50
2018-09-04T00:50:54.499Z,13.90
2018-09-04T00:53:35.475Z,14.17
2018-09-04T00:56:16.384Z,13.60
2018-09-04T00:58:57.838Z,12.70
2018-09-04T01:01:38.989Z,12.90
2018-09-04T01:04:20.677Z,12.60
2018-09-04T01:07:02.404Z,13.17
2018-09-04T01:09:44.007Z,12.73
2018-09-04T01:12:24.840Z,14.07
2018-09-04T01:15:06.500Z,13.30
2018-09-04T01:17:53.320Z,12.80
2018-09-04T01:20:35.057Z,15.50
2018-09-04T01:23:15.997Z,13.47
2018-09-04T01:25:57.631Z,13.80
2018-09-04T01:28:39.247Z,13.87
2018-09-04T01:31:20.047Z,15.03
2018-09-04T01:34:01.340Z,14.30
2018-09-04T01:36:43.156Z,13.57
2018-09-04T01:39:32.653Z,14.70
2018-09-04T01:42:14.607Z,14.80
2018-09-04T01:44:56.251Z,14.47
2018-09-04T01:47:37.879Z,14.37
2018-09-04T01:50:18.834Z,14.77
2018-09-04T01:52:59.782Z,13.80
2018-09-04T01:55:41.531Z,13.20
2018-09-04T01:58:23.334Z,14.17
2018-09-04T02:01:05.218Z,15.30
2018-09-04T02:03:50.125Z,15.57
2018-09-04T02:06:44.030Z,13.90
2018-09-04T02:09:45.932Z,14.00
2018-09-04T02:12:27.674Z,14.73
2018-09-04T02:15:09.475Z,13.63
2018-09-04T02:17:51.454Z,14.13
2018-09-04T02:20:33.774Z,13.30
2018-09-04T02:23:16.950Z,13.43
2018-09-04T02:25:59.488Z,15.07
2018-09-04T02:28:41.354Z,15.00
2018-09-04T02:31:23.250Z,14.30
2018-09-04T02:34:04.206Z,13.97
2018-09-04T02:36:45.870Z,14.20
2018-09-04T02:39:26.705Z,13.47
2018-09-04T02:42:08.401Z,14.10
2018-09-04T02:51:07.473Z,14.33
2018-09-04T02:53:48.708Z,13.70
2018-09-04T02:56:30.543Z,13.50
2018-09-04T02:59:12.069Z,13.97
2018-09-04T03:01:53.088Z,13.13
2018-09-04T03:04:34.849Z,12.60
2018-09-04T03:07:16.881Z,14.30
2018-09-04T03:09:58.499Z,13.40
2018-09-04T03:12:40.361Z,14.20
2018-09-04T03:15:22.310Z,12.30
2018-09-04T03:18:03.921Z,12.60
2018-09-04T03:20:45.547Z,13.30
2018-09-04T03:23:27.590Z,13.07
2018-09-04T03:26:11.076Z,13.60
2018-09-04T03:28:52.847Z,13.30
2018-09-04T03:31:34.648Z,13.23
2018-09-04T03:34:16.456Z,13.70
2018-09-04T03:36:59.217Z,12.70
2018-09-04T03:39:40.749Z,14.20
2018-09-04T03:42:22.660Z,14.10
2018-09-04T03:45:04.635Z,14.43
2018-09-04T03:47:46.403Z,12.73
2018-09-04T03:50:42.327Z,12.77
2018-09-04T03:53:23.519Z,12.50
2018-09-04T03:56:05.186Z,12.70
2018-09-04T03:58:47.461Z,13.67
2018-09-04T04:01:48.782Z,12.23
2018-09-04T04:04:30.516Z,13.50
2018-09-04T04:07:12.308Z,13.27
2018-09-04T04:10:03.319Z,13.77
2018-09-04T04:12:44.968Z,13.60
2018-09-04T04:15:26.747Z,14.47
2018-09-04T04:18:08.637Z,14.10
2018-09-04T04:20:57.340Z,14.00
2018-09-04T04:23:38.273Z,13.20
2018-09-04T04:26:19.225Z,13.13
2018-09-04T04:29:01.277Z,13.83
2018-09-04T04:31:42.883Z,14.23
2018-09-04T04:34:24.487Z,14.07
2018-09-04T04:37:05.962Z,14.50
2018-09-04T04:39:47.563Z,14.47
2018-09-04T04:42:29.365Z,14.27
2018-09-04T04:45:11.174Z,13.40
2018-09-04T04:47:52.597Z,12.70
2018-09-04T04:50:34.085Z,14.47
2018-09-04T04:53:15.888Z,12.40
2018-09-04T04:55:56.878Z,14.10
2018-09-04T04:58:38.479Z,13.87
2018-09-04T05:01:20.233Z,13.33
2018-09-04T05:04:01.656Z,12.17
2018-09-04T05:06:42.752Z,13.57
2018-09-04T05:09:24.630Z,12.83
2018-09-04T05:12:06.274Z,12.57
2018-09-04T05:14:48.017Z,13.43
2018-09-04T05:17:29.694Z,12.70
2018-09-04T05:20:14.218Z,13.60
2018-09-04T05:22:55.711Z,13.17
2018-09-04T05:25:36.765Z,11.87
2018-09-04T05:28:17.631Z,13.70
2018-09-04T05:30:59.447Z,13.20
2018-09-04T05:33:43.463Z,12.70
2018-09-04T05:36:24.793Z,14.50
2018-09-04T05:39:06.356Z,12.40
2018-09-04T05:41:47.979Z,13.80
2018-09-04T05:44:29.933Z,13.03
2018-09-04T05:47:11.599Z,13.07
2018-09-04T05:49:53.263Z,12.23
2018-09-04T05:52:34.694Z,12.57
2018-09-04T05:55:16.451Z,12.83
2018-09-04T05:57:58.253Z,12.20
2018-09-04T06:00:48.598Z,12.70
2018-09-04T06:03:29.491Z,14.70
2018-09-04T06:06:11.032Z,12.30
2018-09-04T06:08:53.311Z,12.67
2018-09-04T06:11:34.600Z,12.03
2018-09-04T06:14:16.260Z,13.57
2018-09-04T06:16:58.003Z,11.47
2018-09-04T06:19:40.670Z,12.23
2018-09-04T06:22:22.345Z,11.10
2018-09-04T06:25:03.972Z,14.20
2018-09-04T06:27:44.856Z,17.70
2018-09-04T06:30:26.798Z,16.80
2018-09-04T06:33:08.228Z,25.50
2018-09-04T06:35:50.135Z,16.27
2018-09-04T06:38:31.818Z,14.10
2018-09-04T06:41:13.363Z,11.40
2018-09-04T06:43:54.119Z,9.70
2018-09-04T06:46:35.862Z,10.60
2018-09-04T06:49:17.785Z,9.53
2018-09-04T06:52:02.981Z,9.27
2018-09-04T06:54:45.302Z,10.47
2018-09-04T06:57:26.655Z,9.43
2018-09-04T07:00:08.445Z,9.80
2018-09-04T07:02:50.098Z,9.20
2018-09-04T07:05:34.112Z,9.90
2018-09-04T07:08:15.036Z,8.53
2018-09-04T07:10:56.074Z,8.00
2018-09-04T07:13:37.765Z,7.40
2018-09-04T07:16:19.466Z,8.33
2018-09-04T07:19:00.338Z,7.70
2018-09-04T07:21:42.395Z,8.83
2018-09-04T07:24:23.886Z,8.80
2018-09-04T07:27:05.372Z,8.80
2018-09-04T07:29:47.186Z,9.30
2018-09-04T07:32:28.672Z,10.20
2018-09-04T07:35:10.418Z,8.97
2018-09-04T07:37:52.256Z,9.30
2018-09-04T07:40:34.020Z,8.63
2018-09-04T07:43:15.776Z,9.53
2018-09-04T07:45:57.339Z,46.57
2018-09-04T07:48:38.334Z,14.73
2018-09-04T07:51:19.238Z,8.17
2018-09-04T07:54:01.030Z,10.20
2018-09-04T07:56:42.606Z,8.80
2018-09-04T07:59:24.120Z,8.70
2018-09-04T08:02:05.924Z,8.13
2018-09-04T08:04:47.781Z,8.70
2018-09-04T08:07:28.810Z,8.30
2018-09-04T08:10:09.731Z,9.90
2018-09-04T08:12:51.536Z,9.80
2018-09-04T08:15:32.342Z,8.70
2018-09-04T08:18:14.142Z,9.03
2018-09-04T08:20:55.328Z,9.00
2018-09-04T08:23:37.063Z,8.23
2018-09-04T08:26:18.976Z,8.10
2018-09-04T08:28:59.975Z,7.90
2018-09-04T08:31:41.543Z,6.90
2018-09-04T08:34:22.629Z,8.73
2018-09-04T08:37:04.325Z,7.60
2018-09-04T08:39:46.227Z,7.50
2018-09-04T08:42:27.848Z,7.50
2018-09-04T08:45:10.393Z,7.10
2018-09-04T08:47:51.564Z,7.10
2018-09-04T08:50:34.007Z,7.53
2018-09-04T08:53:16.224Z,7.30
2018-09-04T08:55:57.433Z,7.50
2018-09-04T08:58:39.292Z,6.53
2018-09-04T09:01:20.146Z,6.63
2018-09-04T09:04:01.073Z,7.20
2018-09-04T09:06:42.708Z,6.20
2018-09-04T09:09:24.418Z,7.13
2018-09-04T09:12:05.310Z,7.57
2018-09-04T09:14:46.905Z,7.50
2018-09-04T09:17:29.321Z,7.83
2018-09-04T09:20:11.047Z,7.63
2018-09-04T09:22:51.986Z,7.57
2018-09-04T09:25:33.185Z,7.00
2018-09-04T09:28:14.106Z,6.47
2018-09-04T09:30:55.122Z,6.73
2018-09-04T09:33:35.934Z,7.57
2018-09-04T09:36:17.247Z,6.33
2018-09-04T09:38:58.930Z,6.37
2018-09-04T09:41:40.332Z,5.87
2018-09-04T09:44:21.520Z,6.23
2018-09-04T09:47:02.978Z,8.80
2018-09-04T09:49:43.907Z,7.13
2018-09-04T09:52:24.896Z,7.50
2018-09-04T09:55:06.637Z,6.27
2018-09-04T09:57:48.133Z,6.93
2018-09-04T10:00:34.122Z,6.10
2018-09-04T10:03:20.940Z,6.93
2018-09-04T10:06:02.824Z,6.50
2018-09-04T10:08:44.628Z,6.63
2018-09-04T10:11:26.467Z,6.50
2018-09-04T10:14:08.286Z,7.60
2018-09-04T10:16:50.046Z,6.90
2018-09-04T10:19:32.389Z,6.73
2018-09-04T10:22:13.577Z,7.33
2018-09-04T10:24:55.441Z,6.93
2018-09-04T10:27:37.444Z,7.67
2018-09-04T10:30:18.905Z,7.60
2018-09-04T10:32:59.808Z,7.23
2018-09-04T10:35:40.665Z,7.33
2018-09-04T10:38:24.511Z,6.53
2018-09-04T10:41:09.739Z,6.40
2018-09-04T10:43:51.438Z,6.80
2018-09-04T10:46:32.599Z,6.30
2018-09-04T10:49:16.153Z,5.90
2018-09-04T10:51:57.941Z,7.57
2018-09-04T10:54:40.959Z,5.97
2018-09-04T10:57:22.812Z,6.10
2018-09-04T11:00:04.838Z,6.53
2018-09-04T11:02:46.634Z,5.80
2018-09-04T11:05:28.234Z,5.50
2018-09-04T11:08:10.547Z,5.73
2018-09-04T11:10:51.861Z,5.90
2018-09-04T11:13:34.391Z,6.20
2018-09-04T11:16:16.100Z,5.77
2018-09-04T11:18:56.863Z,5.93
2018-09-04T11:21:37.916Z,6.67
2018-09-04T11:24:19.397Z,6.00
2018-09-04T11:27:00.388Z,6.60
2018-09-04T11:29:41.786Z,6.30
2018-09-04T11:32:23.074Z,6.67
2018-09-04T11:35:04.341Z,5.83
2018-09-04T11:37:46.050Z,6.63
2018-09-04T11:40:27.879Z,6.03
2018-09-04T11:43:10.546Z,6.17
2018-09-04T11:45:51.481Z,6.10
2018-09-04T11:48:38.734Z,6.23
2018-09-04T11:51:21.706Z,6.70
2018-09-04T11:54:07.834Z,6.17
2018-09-04T11:56:49.912Z,6.13
2018-09-04T11:59:46.367Z,5.43
2018-09-04T12:02:32.305Z,6.23
2018-09-04T12:05:15.003Z,6.60
2018-09-04T12:07:56.999Z,5.50
2018-09-04T12:10:40.480Z,5.93
2018-09-04T12:13:26.498Z,6.70
2018-09-04T12:16:08.612Z,6.90
2018-09-04T12:18:49.497Z,6.70
2018-09-04T12:21:35.411Z,5.97
2018-09-04T12:24:17.436Z,5.37
2018-09-04T12:26:59.027Z,5.60
2018-09-04T12:29:41.574Z,6.30
2018-09-04T12:32:23.566Z,6.30
2018-09-04T12:35:04.987Z,9.20
2018-09-04T12:37:49.415Z,7.07
2018-09-04T12:40:30.556Z,6.60
2018-09-04T12:43:12.288Z,6.83
2018-09-04T12:45:55.649Z,6.23
2018-09-04T12:48:39.103Z,6.20
2018-09-04T12:51:21.349Z,8.70
2018-09-04T12:54:02.481Z,8.90
2018-09-04T12:56:44.267Z,6.40
2018-09-04T12:59:25.297Z,6.63
2018-09-04T13:02:06.716Z,6.93
2018-09-04T13:04:48.552Z,5.90
2018-09-04T13:07:30.289Z,6.03
2018-09-04T13:10:11.945Z,5.80
2018-09-04T13:12:53.616Z,6.57
2018-09-04T13:15:35.272Z,6.23
2018-09-04T13:18:17.072Z,6.97
2018-09-04T13:21:02.899Z,7.93
2018-09-04T13:23:43.775Z,7.47
2018-09-04T13:26:24.811Z,5.90
2018-09-04T13:29:05.860Z,6.53
2018-09-04T13:31:47.657Z,6.07
2018-09-04T13:34:29.404Z,6.20
2018-09-04T13:37:12.220Z,5.80
2018-09-04T13:40:08.384Z,6.27
2018-09-04T13:42:51.068Z,5.97
2018-09-04T13:45:32.710Z,6.07
2018-09-04T13:48:15.819Z,6.40
2018-09-04T13:50:57.279Z,6.73
2018-09-04T13:53:39.160Z,6.60
2018-09-04T13:56:20.926Z,5.40
2018-09-04T13:59:02.664Z,5.30
2018-09-04T14:01:44.023Z,6.17
2018-09-04T14:04:25.411Z,6.87
2018-09-04T14:07:07.068Z,5.50
2018-09-04T14:09:48.314Z,5.67
2018-09-04T14:12:29.469Z,5.80
2018-09-04T14:15:11.487Z,5.57
2018-09-04T14:17:52.896Z,5.70
2018-09-04T14:20:34.593Z,5.30
2018-09-04T14:23:15.557Z,6.50
2018-09-04T14:25:57.125Z,6.17
2018-09-04T14:28:41.579Z,5.90
2018-09-04T14:31:19.927Z,6.20
2018-09-04T14:34:01.677Z,6.40
2018-09-04T14:36:43.483Z,6.07
2018-09-04T14:39:24.235Z,5.70
2018-09-04T14:42:05.041Z,5.83
2018-09-04T14:44:46.853Z,5.80
2018-09-04T14:47:28.746Z,6.40
2018-09-04T14:50:10.495Z,5.50
2018-09-04T14:52:52.116Z,6.77
2018-09-04T14:55:34.728Z,6.40
2018-09-04T14:58:16.464Z,6.20
2018-09-04T15:00:57.748Z,5.90
2018-09-04T15:03:39.193Z,6.17
2018-09-04T15:06:21.770Z,5.80
2018-09-04T15:09:02.724Z,6.33
2018-09-04T15:11:44.118Z,5.67
2018-09-04T15:14:25.733Z,5.97
2018-09-04T15:17:08.281Z,5.50
2018-09-04T15:19:50.029Z,5.93
2018-09-04T15:22:31.721Z,6.00
2018-09-04T15:25:13.480Z,5.70
2018-09-04T15:27:55.061Z,6.30
2018-09-04T15:30:36.922Z,5.90
2018-09-04T15:33:18.875Z,5.73
2018-09-04T15:36:00.321Z,5.70
2018-09-04T15:38:41.289Z,6.00
2018-09-04T15:41:22.157Z,6.23
2018-09-04T15:44:03.943Z,5.73
2018-09-04T15:46:45.522Z,6.20
2018-09-04T15:49:32.279Z,6.67
2018-09-04T15:52:14.434Z,6.80
2018-09-04T15:54:56.605Z,5.87
2018-09-04T15:57:38.494Z,5.80
2018-09-04T16:00:20.060Z,7.00
2018-09-04T16:03:01.997Z,5.77
2018-09-04T16:05:43.536Z,6.60
2018-09-04T16:08:24.795Z,6.37
2018-09-04T16:11:06.039Z,6.87
2018-09-04T16:13:47.130Z,6.80
2018-09-04T16:16:28.462Z,6.20
2018-09-04T16:19:09.908Z,6.03
2018-09-04T16:21:51.704Z,6.10
2018-09-04T16:24:33.473Z,7.60
2018-09-04T16:27:14.423Z,5.63
2018-09-04T16:29:55.269Z,6.40
2018-09-04T16:32:37.318Z,6.17
2018-09-04T16:35:18.959Z,6.47
2018-09-04T16:37:59.917Z,7.00
2018-09-04T16:40:40.658Z,6.37
2018-09-04T16:43:21.805Z,6.90
2018-09-04T16:46:03.443Z,6.93
2018-09-04T16:48:44.718Z,6.30
2018-09-04T16:51:25.784Z,7.50
2018-09-04T16:54:06.919Z,7.10
2018-09-04T16:56:48.153Z,7.30
2018-09-04T16:59:29.688Z,6.73
2018-09-04T17:02:10.932Z,6.13
2018-09-04T17:04:52.441Z,5.93
2018-09-04T17:07:33.989Z,6.47
2018-09-04T17:10:15.257Z,6.00
2018-09-04T17:12:56.762Z,5.97
2018-09-04T17:15:38.170Z,6.50
2018-09-04T17:18:19.572Z,6.83
2018-09-04T17:21:00.627Z,5.60
2018-09-04T17:23:43.267Z,5.90
2018-09-04T17:26:24.957Z,6.00
2018-09-04T17:29:06.340Z,6.20
2018-09-04T17:31:47.809Z,5.73
2018-09-04T17:34:28.541Z,7.13
2018-09-04T17:37:09.377Z,6.57
2018-09-04T17:39:51.344Z,5.83
2018-09-04T17:42:33.309Z,6.03
2018-09-04T17:45:15.041Z,6.77
2018-09-04T17:47:55.829Z,6.63
2018-09-04T17:50:37.437Z,5.93
2018-09-04T17:53:19.185Z,6.50
2018-09-04T17:56:00.189Z,6.90
2018-09-04T17:58:56.652Z,6.63
2018-09-04T18:01:38.666Z,6.87
2018-09-04T18:04:20.243Z,6.67
2018-09-04T18:07:01.910Z,7.43
2018-09-04T18:09:43.862Z,6.83
2018-09-04T18:12:26.075Z,7.20
2018-09-04T18:15:07.306Z,6.30
2018-09-04T18:17:49.016Z,7.13
2018-09-04T18:20:30.708Z,6.70
2018-09-04T18:23:12.227Z,7.70
2018-09-04T18:25:54.245Z,7.53
2018-09-04T18:28:35.073Z,7.40
2018-09-04T18:31:16.502Z,6.60
2018-09-04T18:33:58.232Z,7.43
2018-09-04T18:36:39.917Z,7.10
2018-09-04T18:39:21.584Z,7.73
2018-09-04T18:42:03.343Z,6.67
2018-09-04T18:44:44.202Z,7.43
2018-09-04T18:47:25.165Z,8.70
2018-09-04T18:50:06.028Z,8.33
2018-09-04T18:52:47.536Z,9.00
2018-09-04T18:55:29.222Z,8.73
2018-09-04T18:58:10.977Z,8.50
2018-09-04T19:00:52.542Z,8.33
2018-09-04T19:03:33.623Z,8.53
2018-09-04T19:06:15.486Z,8.00
2018-09-04T19:08:57.370Z,7.97
2018-09-04T19:11:40.057Z,8.23
2018-09-04T19:14:21.657Z,7.70
2018-09-04T19:17:02.892Z,8.53
2018-09-04T19:19:44.650Z,7.77
2018-09-04T19:22:26.045Z,8.07
2018-09-04T19:25:07.141Z,7.70
2018-09-04T19:27:49.005Z,7.23
2018-09-04T19:30:30.319Z,6.80
2018-09-04T19:33:11.507Z,7.10
2018-09-04T19:35:53.288Z,7.73
2018-09-04T19:38:34.935Z,7.20
2018-09-04T19:41:18.230Z,6.60
2018-09-04T19:43:59.593Z,6.50
2018-09-04T19:46:41.302Z,7.57
2018-09-04T19:49:24.049Z,7.33
2018-09-04T19:52:05.551Z,7.13
2018-09-04T19:54:48.316Z,7.10
2018-09-04T19:57:29.293Z,7.77
2018-09-04T20:00:11.761Z,6.53
2018-09-04T20:02:55.996Z,6.93
2018-09-04T20:05:38.430Z,7.20
2018-09-04T20:08:19.630Z,6.20
2018-09-04T20:11:01.007Z,6.53
2018-09-04T20:13:42.073Z,7.77
2018-09-04T20:16:23.806Z,7.33
2018-09-04T20:19:04.719Z,7.57
2018-09-04T20:21:45.686Z,7.17
2018-09-04T20:24:28.929Z,7.50
2018-09-04T20:27:10.576Z,7.03
2018-09-04T20:29:51.960Z,8.17
2018-09-04T20:32:33.999Z,7.23
2018-09-04T20:35:16.586Z,8.10
2018-09-04T20:37:58.667Z,7.40
2018-09-04T20:40:40.308Z,6.50
2018-09-04T20:43:21.768Z,7.20
2018-09-04T20:46:02.880Z,6.80
2018-09-04T20:48:44.583Z,7.20
2018-09-04T20:51:26.023Z,7.30
2018-09-04T20:54:26.853Z,6.47
2018-09-04T20:57:08.410Z,6.97
2018-09-04T20:59:50.411Z,6.93
2018-09-04T21:02:31.990Z,7.17
2018-09-04T21:05:14.302Z,6.30
2018-09-04T21:08:00.770Z,7.20
2018-09-04T21:10:42.932Z,6.90
2018-09-04T21:14:11.197Z,7.10
2018-09-04T21:16:52.936Z,6.97
2018-09-04T21:19:34.038Z,6.67
2018-09-04T21:22:15.452Z,7.87
2018-09-04T21:24:56.289Z,6.60
2018-09-04T21:27:38.049Z,7.90
2018-09-04T21:30:19.741Z,7.33
2018-09-04T21:33:01.704Z,7.30
2018-09-04T21:35:46.054Z,7.37
2018-09-04T21:38:27.592Z,7.17
2018-09-04T21:41:09.167Z,7.80
2018-09-04T21:43:50.204Z,6.47
2018-09-04T21:46:31.916Z,7.20
2018-09-04T21:49:13.780Z,7.10
2018-09-04T21:51:54.590Z,6.90
2018-09-04T21:54:36.314Z,7.20
2018-09-04T21:57:18.258Z,7.00
2018-09-04T21:59:59.897Z,7.00
2018-09-04T22:02:41.345Z,8.57
2018-09-04T22:05:24.321Z,8.20
2018-09-04T22:08:05.678Z,7.00
2018-09-04T22:10:47.228Z,7.47
2018-09-04T22:13:29.759Z,7.43
2018-09-04T22:16:12.508Z,7.90
2018-09-04T22:18:54.038Z,7.53
2018-09-04T22:21:35.788Z,7.80
2018-09-04T22:24:17.359Z,7.10
2018-09-04T22:26:59.043Z,7.70
2018-09-04T22:29:40.719Z,7.87
2018-09-04T22:32:22.483Z,7.80
2018-09-04T22:35:04.043Z,8.60
2018-09-04T22:37:44.864Z,6.43
2018-09-04T22:40:26.745Z,8.13
2018-09-04T22:43:08.765Z,8.10
2018-09-04T22:45:50.304Z,7.20
2018-09-04T22:48:31.381Z,7.43
2018-09-04T22:51:18.317Z,8.17
2018-09-04T22:54:00.023Z,7.10
2018-09-04T22:56:41.524Z,7.30
2018-09-04T22:59:23.052Z,6.80
2018-09-04T23:02:04.281Z,7.77
2018-09-04T23:04:45.975Z,7.40
2018-09-04T23:07:27.836Z,7.80
2018-09-04T23:10:09.628Z,8.27
2018-09-04T23:12:51.543Z,7.60
2018-09-04T23:15:36.971Z,6.77
2018-09-04T23:18:18.163Z,7.07
2018-09-04T23:20:59.886Z,6.67
2018-09-04T23:23:41.524Z,6.90
2018-09-04T23:26:22.733Z,6.47
2018-09-04T23:29:03.998Z,6.97
2018-09-04T23:31:45.520Z,7.97
2018-09-04T23:34:27.416Z,7.47
2018-09-04T23:37:08.863Z,7.10
2018-09-04T23:39:50.558Z,7.07
2018-09-04T23:42:33.105Z,7.80
2018-09-04T23:45:15.753Z,6.90
2018-09-04T23:47:57.600Z,7.70
2018-09-04T23:50:39.517Z,7.60
2018-09-04T23:53:21.143Z,6.80
2018-09-04T23:56:02.004Z,6.87
2018-09-04T23:58:44.035Z,6.27
